Time;durP1;ratioP1;P1;durP2;ratioP2;P2;SDS_P1;SDS_P2;PMS_P1;PMS_P2;Temp;Humidity;BMP_temperature;BMP_pressure;BME280_temperature;BME280_humidity;BME280_pressure;Samples;Min_cycle;Max_cycle;Signal;HPM_P1;HPM_P2
2023/04/15 00:01:06;;;;;;;11.33;6.83;;;;;;;-141.97;76.98;47601.72;5030395;28;20190;-82
2023/04/15 00:03:33;;;;;;;11.00;7.17;;;;;;;-141.97;77.61;47599.81;5031965;28;20548;-82
2023/04/15 00:05:58;;;;;;;13.23;7.80;;;;;;;-141.97;78.23;47601.72;5032291;28;20162;-82
2023/04/15 00:08:24;;;;;;;12.77;7.00;;;;;;;-141.97;77.82;47628.63;5030705;28;20669;-82
2023/04/15 00:10:49;;;;;;;12.03;7.20;;;;;;;-141.97;77.58;47603.66;5031494;28;20174;-83
2023/04/15 00:13:15;;;;;;;13.77;7.43;;;;;;;-141.97;77.00;47595.97;5031667;28;20177;-83
2023/04/15 00:15:41;;;;;;;11.73;7.00;;;;;;;-141.97;76.30;47594.03;5031682;28;20165;-82
2023/04/15 00:18:06;;;;;;;11.50;7.20;;;;;;;-141.97;77.37;47619.03;5032478;28;20162;-81
2023/04/15 00:20:33;;;;;;;13.20;7.70;;;;;;;-141.97;77.22;47615.19;5031261;28;20628;-82
2023/04/15 00:22:59;;;;;;;11.40;7.27;;;;;;;-141.97;77.23;47622.88;5033263;28;20166;-81
2023/04/15 00:25:24;;;;;;;12.87;7.40;;;;;;;-141.97;77.28;47617.09;5038194;28;20226;-82
2023/04/15 00:27:50;;;;;;;12.03;7.57;;;;;;;-141.97;78.16;47603.66;5054227;28;20189;-81
2023/04/15 00:30:15;;;;;;;15.30;8.50;;;;;;;-141.97;78.08;47619.03;5036073;28;20169;-82
2023/04/15 00:32:41;;;;;;;14.47;8.30;;;;;;;-141.97;78.28;47586.34;5030804;28;20229;-82
2023/04/15 00:35:07;;;;;;;13.00;8.10;;;;;;;-141.97;78.88;47607.50;5030926;28;20173;-81
2023/04/15 00:37:34;;;;;;;14.87;8.30;;;;;;;-141.97;79.49;47572.91;5029282;28;20174;-83
2023/04/15 00:40:00;;;;;;;12.73;7.90;;;;;;;-141.97;79.73;47632.47;5030825;28;20665;-82
2023/04/15 00:42:26;;;;;;;12.30;7.43;;;;;;;-141.97;80.90;47555.59;5031097;28;20558;-81
2023/04/15 00:44:52;;;;;;;12.07;7.50;;;;;;;-141.97;82.33;47653.63;5029513;28;20177;-83
2023/04/15 00:47:17;;;;;;;11.17;7.20;;;;;;;-141.97;82.78;47657.47;5031371;28;20540;-81
2023/04/15 00:49:43;;;;;;;14.87;6.90;;;;;;;-141.97;82.92;47613.25;5030873;28;20245;-81
2023/04/15 00:52:08;;;;;;;10.83;7.03;;;;;;;-141.97;81.83;47692.06;5031071;28;20574;-81
2023/04/15 00:54:34;;;;;;;12.73;6.87;;;;;;;-141.97;81.11;47613.25;5036167;28;20170;-82
2023/04/15 00:57:00;;;;;;;12.23;7.13;;;;;;;-141.97;81.33;47717.06;5036382;28;20178;-81
2023/04/15 00:59:26;;;;;;;11.47;7.00;;;;;;;-141.97;82.15;47613.25;5035032;28;20244;-81
2023/04/15 01:01:52;;;;;;;11.97;7.60;;;;;;;-141.97;81.98;47620.94;5031104;28;20610;-84
2023/04/15 01:04:18;;;;;;;12.77;6.73;;;;;;;-141.97;81.66;47630.56;5031445;28;20193;-82
2023/04/15 01:06:44;;;;;;;12.77;6.90;;;;;;;-141.97;81.23;47607.50;5033817;28;20185;-82
2023/04/15 01:09:10;;;;;;;11.57;7.60;;;;;;;-141.97;82.16;47542.16;5035216;28;20170;-82
2023/04/15 01:11:36;;;;;;;11.97;7.00;;;;;;;-141.97;82.72;47594.03;5034500;28;20638;-81
2023/04/15 01:14:02;;;;;;;12.43;7.03;;;;;;;-141.97;83.05;47617.09;5034596;28;20227;-81
2023/04/15 01:16:27;;;;;;;11.83;7.43;;;;;;;-141.97;82.14;47619.03;5034621;28;20634;-82
2023/04/15 01:18:53;;;;;;;14.60;8.60;;;;;;;-141.97;81.83;47615.19;5034104;28;20690;-82
2023/04/15 01:21:18;;;;;;;23.80;10.93;;;;;;;-141.97;81.12;47605.56;5034636;28;20177;-82
2023/04/15 01:23:47;;;;;;;15.70;8.67;;;;;;;-141.97;80.55;47607.50;5034265;28;20576;-82
2023/04/15 01:26:12;;;;;;;13.33;8.00;;;;;;;-141.97;80.14;47653.63;5032880;28;20222;-81
2023/04/15 01:28:38;;;;;;;13.50;7.50;;;;;;;-141.97;78.63;47580.59;5034576;28;20305;-82
2023/04/15 01:31:11;;;;;;;13.40;7.93;;;;;;;-141.97;78.83;47630.56;5033847;28;20255;-81
2023/04/15 01:33:38;;;;;;;12.27;7.27;;;;;;;-141.97;78.54;47605.56;5033239;28;20207;-81
2023/04/15 01:36:05;;;;;;;10.60;7.30;;;;;;;-141.97;78.00;47620.94;5032882;28;20287;-82
2023/04/15 01:38:31;;;;;;;10.97;7.47;;;;;;;-141.97;78.17;47561.38;5034170;28;20193;-82
2023/04/15 01:40:57;;;;;;;20.20;10.37;;;;;;;-141.97;77.70;47751.66;5033841;28;20155;-81
2023/04/15 01:43:22;;;;;;;12.80;8.20;;;;;;;-141.97;77.49;47626.72;5034093;28;20608;-82
2023/04/15 01:45:48;;;;;;;8.83;6.00;;;;;;;-141.97;78.08;47634.41;5034361;28;20162;-81
2023/04/15 01:48:13;;;;;;;11.87;6.63;;;;;;;-141.97;78.75;47638.25;5034342;28;20174;-82
2023/04/15 01:50:39;;;;;;;10.33;6.80;;;;;;;-141.97;79.04;47619.03;5034204;28;20188;-82
2023/04/15 01:53:04;;;;;;;9.57;6.47;;;;;;;-141.97;79.22;47611.34;5034159;28;20204;-83
2023/04/15 01:55:31;;;;;;;11.00;6.60;;;;;;;-141.97;79.06;47563.28;5033053;28;20264;-82
2023/04/15 01:57:56;;;;;;;10.27;6.23;;;;;;;-141.97;78.28;47615.19;5033672;28;20158;-83
2023/04/15 02:00:22;;;;;;;12.83;6.77;;;;;;;-141.97;77.55;47613.25;5032714;28;20177;-82
2023/04/15 02:02:48;;;;;;;9.30;6.20;;;;;;;-141.97;77.46;47622.88;5033248;28;20170;-82
2023/04/15 02:05:14;;;;;;;10.77;6.07;;;;;;;-141.97;78.92;47609.41;5044857;28;20224;-84
2023/04/15 02:07:41;;;;;;;11.37;6.20;;;;;;;-141.97;79.26;47555.59;5058180;28;20155;-83
2023/04/15 02:10:07;;;;;;;8.17;5.20;;;;;;;-141.97;79.54;47628.63;5054172;28;20239;-83
2023/04/15 02:12:34;;;;;;;9.57;5.60;;;;;;;-141.97;78.25;47570.97;5048037;28;20218;-83
2023/04/15 02:14:59;;;;;;;9.87;5.53;;;;;;;-141.97;78.06;47642.09;5033120;28;20198;-84
2023/04/15 02:17:25;;;;;;;8.50;5.27;;;;;;;-141.97;78.22;47717.06;5033599;28;20162;-83
2023/04/15 02:19:50;;;;;;;7.07;5.00;;;;;;;-141.97;77.99;47544.06;5033064;28;20255;-84
2023/04/15 02:22:17;;;;;;;8.60;5.30;;;;;;;-141.97;77.27;47603.66;5019080;28;20269;-84
2023/04/15 02:24:43;;;;;;;9.40;5.10;;;;;;;-141.97;76.98;47595.97;5013727;28;20565;-84
2023/04/15 02:27:09;;;;;;;8.43;5.03;;;;;;;-141.97;76.63;47567.13;5011958;28;20171;-84
2023/04/15 02:29:34;;;;;;;8.23;4.90;;;;;;;-141.97;75.72;47642.09;5012868;28;20224;-83
2023/04/15 02:32:00;;;;;;;6.97;4.37;;;;;;;-141.97;75.40;47536.38;5013351;28;20248;-83
2023/04/15 02:34:26;;;;;;;8.53;4.70;;;;;;;-141.97;75.29;47742.03;5013313;28;20158;-83
2023/04/15 02:36:56;;;;;;;7.77;4.33;;;;;;;-141.97;75.06;47645.94;5012886;28;20687;-83
2023/04/15 02:39:21;;;;;;;7.17;4.60;;;;;;;-141.97;74.87;47597.88;5011884;28;20245;-83
2023/04/15 02:41:50;;;;;;;7.00;4.03;;;;;;;-141.97;74.84;47615.19;5028624;28;20606;-84
2023/04/15 02:44:19;;;;;;;8.27;4.43;;;;;;;-141.97;75.94;47603.66;5012767;28;20607;-83
2023/04/15 02:46:51;;;;;;;7.03;4.33;;;;;;;-141.97;76.47;47638.25;5011649;28;20166;-84
2023/04/15 02:49:16;;;;;;;7.80;5.00;;;;;;;-141.97;76.35;47615.19;5011388;28;20270;-84
2023/04/15 02:51:42;;;;;;;8.70;4.40;;;;;;;-141.97;76.40;47607.50;5013282;28;20216;-84
2023/04/15 02:54:07;;;;;;;6.87;4.63;;;;;;;-141.97;75.76;47622.88;5013053;28;20167;-84
2023/04/15 02:56:33;;;;;;;13.70;6.10;;;;;;;-141.97;74.90;47634.41;5011262;28;20643;-84
2023/04/15 02:58:58;;;;;;;16.03;7.83;;;;;;;-141.97;74.38;47653.63;5012653;28;20163;-84
2023/04/15 03:01:26;;;;;;;10.37;5.93;;;;;;;-141.97;72.94;47749.72;5012924;28;20178;-85
2023/04/15 03:03:51;;;;;;;10.57;6.73;;;;;;;-141.97;72.69;47526.75;5012788;28;20206;-84
2023/04/15 03:06:16;;;;;;;9.50;5.73;;;;;;;-141.97;71.99;47582.50;5012794;28;20250;-84
2023/04/15 03:08:42;;;;;;;10.97;6.00;;;;;;;-141.97;71.39;47569.06;5011774;28;20178;-83
2023/04/15 03:11:07;;;;;;;13.90;6.50;;;;;;;-141.97;72.19;47615.19;5011100;28;20202;-83
2023/04/15 03:13:33;;;;;;;9.43;4.70;;;;;;;-141.97;72.87;47578.66;5012324;28;20183;-83
2023/04/15 03:15:58;;;;;;;8.20;4.77;;;;;;;-141.97;74.46;47711.28;5018798;28;20316;-83
2023/04/15 03:18:23;;;;;;;8.23;3.70;;;;;;;-141.97;75.48;47634.41;5033607;28;20159;-84
2023/04/15 03:20:49;;;;;;;6.50;3.67;;;;;;;-141.97;77.52;47632.47;5027630;28;20187;-83
2023/04/15 03:23:14;;;;;;;7.27;4.50;;;;;;;-141.97;77.73;47611.34;5017155;28;20159;-84
2023/04/15 03:25:40;;;;;;;6.47;4.20;;;;;;;-141.97;77.29;47615.19;5012465;28;20211;-83
2023/04/15 03:28:06;;;;;;;10.17;4.70;;;;;;;-141.97;77.46;47630.56;5010357;28;20179;-84
2023/04/15 03:30:32;;;;;;;8.93;4.27;;;;;;;-141.97;76.74;47628.63;5011680;28;20277;-83
2023/04/15 03:32:57;;;;;;;8.77;5.17;;;;;;;-141.97;76.95;47649.78;5028281;28;20289;-84
2023/04/15 03:35:23;;;;;;;8.07;5.57;;;;;;;-141.97;77.41;47599.81;5011945;28;20606;-83
2023/04/15 03:37:49;;;;;;;9.40;4.83;;;;;;;-141.97;77.00;47732.44;5013414;28;20651;-85
2023/04/15 03:40:14;;;;;;;7.37;4.60;;;;;;;-141.97;77.87;47578.66;5012071;28;20611;-84
2023/04/15 03:42:40;;;;;;;10.20;5.30;;;;;;;-141.97;78.10;47722.81;5012231;28;20599;-85
2023/04/15 03:45:06;;;;;;;11.07;6.40;;;;;;;-141.97;77.85;47665.16;5012865;28;20246;-84
2023/04/15 03:47:32;;;;;;;10.07;5.67;;;;;;;-141.97;77.90;47626.72;5010548;28;20166;-84
2023/04/15 03:49:57;;;;;;;8.73;5.87;;;;;;;-141.97;77.92;47674.78;5010856;28;20175;-83
2023/04/15 03:52:23;;;;;;;9.73;5.90;;;;;;;-141.97;77.80;47472.94;5011999;28;20213;-83
2023/04/15 03:54:48;;;;;;;9.10;4.90;;;;;;;-141.97;77.50;47507.53;5012219;28;20624;-84
2023/04/15 03:57:14;;;;;;;11.37;5.07;;;;;;;-141.97;77.52;47649.78;5010728;28;20178;-84
2023/04/15 03:59:39;;;;;;;9.23;4.80;;;;;;;-141.97;78.36;47472.94;5012298;28;20175;-84
2023/04/15 04:02:05;;;;;;;10.87;5.07;;;;;;;-141.97;78.80;47549.84;5011856;28;20166;-83
2023/04/15 04:04:31;;;;;;;10.60;5.20;;;;;;;-141.97;78.43;47607.50;5027325;28;20244;-85
2023/04/15 04:06:57;;;;;;;11.53;5.50;;;;;;;-141.97;78.85;47736.28;5012380;28;20257;-84
2023/04/15 04:09:23;;;;;;;10.70;5.17;;;;;;;-141.97;77.60;47622.88;5011696;28;20791;-84
2023/04/15 04:11:48;;;;;;;10.67;6.40;;;;;;;-141.97;77.09;47578.66;5011500;28;20198;-84
2023/04/15 04:14:13;;;;;;;12.13;6.50;;;;;;;-141.97;76.54;47542.16;5011603;28;20276;-84
2023/04/15 04:16:39;;;;;;;8.57;5.07;;;;;;;-141.97;77.84;47494.09;5013718;28;20288;-83
2023/04/15 04:19:05;;;;;;;9.93;5.40;;;;;;;-141.97;78.49;47701.69;5013521;28;20225;-84
2023/04/15 04:21:32;;;;;;;8.37;5.00;;;;;;;-141.97;77.90;47630.56;5011688;28;20601;-83
2023/04/15 04:23:58;;;;;;;8.30;4.93;;;;;;;-141.97;76.75;47557.53;5012232;28;20248;-82
2023/04/15 04:26:23;;;;;;;9.27;4.90;;;;;;;-141.97;76.29;47586.34;5017575;28;20171;-82
2023/04/15 04:28:49;;;;;;;10.70;4.90;;;;;;;-141.97;75.76;47715.13;5036529;28;20155;-82
2023/04/15 04:31:15;;;;;;;7.50;3.70;;;;;;;-141.97;76.58;47724.75;5036308;28;20185;-80
2023/04/15 04:33:40;;;;;;;7.17;4.13;;;;;;;-141.97;76.40;47682.47;5017009;28;20175;-83
2023/04/15 04:36:06;;;;;;;5.77;3.30;;;;;;;-141.97;75.67;47457.56;5011591;28;20233;-83
2023/04/15 04:38:31;;;;;;;5.73;3.77;;;;;;;-141.97;75.79;47665.16;5011899;28;20167;-83
2023/04/15 04:40:57;;;;;;;9.40;4.13;;;;;;;-141.97;76.67;47649.78;5016254;28;20742;-82
2023/04/15 04:43:23;;;;;;;12.73;7.00;;;;;;;-141.97;76.83;47669.00;5014300;28;20495;-83
2023/04/15 04:45:48;;;;;;;11.83;7.07;;;;;;;-141.97;76.76;47619.03;5015974;28;20636;-83
2023/04/15 04:48:13;;;;;;;8.90;4.30;;;;;;;-141.97;75.35;47559.44;5016723;28;20181;-82
2023/04/15 04:50:39;;;;;;;7.77;4.40;;;;;;;-141.97;74.74;47711.28;5028398;28;20163;-83
2023/04/15 04:53:04;;;;;;;10.27;4.10;;;;;;;-141.97;75.19;47638.25;5024575;28;20234;-83
2023/04/15 04:55:30;;;;;;;8.03;4.27;;;;;;;-141.97;75.08;47590.19;5015950;28;20167;-83
2023/04/15 04:57:56;;;;;;;5.90;4.10;;;;;;;-141.97;75.77;47615.19;5031577;28;20617;-82
2023/04/15 05:00:21;;;;;;;8.67;4.63;;;;;;;-141.97;75.54;47597.88;5036351;28;20163;-84
2023/04/15 05:02:47;;;;;;;6.97;3.97;;;;;;;-141.97;75.40;47507.53;5035395;28;20962;-84
2023/04/15 05:05:12;;;;;;;6.47;4.13;;;;;;;-141.97;74.92;47480.63;5035615;28;20572;-84
2023/04/15 05:07:38;;;;;;;7.07;4.03;;;;;;;-141.97;74.61;47576.75;5035370;28;20177;-84
2023/04/15 05:10:05;;;;;;;8.50;4.50;;;;;;;-141.97;73.79;47465.25;5041048;28;20220;-83
2023/04/15 05:12:31;;;;;;;8.07;4.60;;;;;;;-141.97;74.44;47469.09;5041441;28;20744;-84
2023/04/15 05:14:56;;;;;;;7.97;4.37;;;;;;;-141.97;74.59;47768.94;5048834;28;20562;-84
2023/04/15 05:17:30;;;;;;;8.63;4.53;;;;;;;-141.97;74.03;47657.47;5033845;28;20186;-83
2023/04/15 05:19:57;;;;;;;9.13;4.57;;;;;;;-141.97;73.53;47497.94;5032676;28;20286;-84
2023/04/15 05:22:23;;;;;;;8.47;4.57;;;;;;;-141.97;73.89;47715.13;5034538;28;20181;-85
2023/04/15 05:24:49;;;;;;;45.47;20.27;;;;;;;-141.97;74.02;47490.25;5034800;28;20178;-84
2023/04/15 05:27:21;;;;;;;11.60;5.87;;;;;;;-141.97;73.64;47430.66;5035626;28;20166;-84
2023/04/15 05:29:49;;;;;;;18.73;9.53;;;;;;;-141.97;72.49;47467.19;5012221;28;20197;-82
2023/04/15 05:32:15;;;;;;;19.33;11.73;;;;;;;-141.97;71.32;47526.75;5013265;28;20752;-83
2023/04/15 05:34:41;;;;;;;9.33;6.13;;;;;;;-141.97;70.14;47524.84;5013097;28;20171;-84
2023/04/15 05:37:06;;;;;;;8.13;4.47;;;;;;;-141.97;71.74;47705.53;5012401;28;20604;-83
2023/04/15 05:39:32;;;;;;;14.13;8.23;;;;;;;-141.97;72.16;47569.06;5013545;28;20720;-82
2023/04/15 05:41:59;;;;;;;8.60;5.50;;;;;;;-141.97;71.56;47492.16;5014790;28;20170;-84
2023/04/15 05:44:25;;;;;;;17.63;8.93;;;;;;;-141.97;72.10;47720.91;5002219;28;20610;-81
2023/04/15 05:46:51;;;;;;;15.60;7.67;;;;;;;-141.97;72.70;47597.88;4996914;28;20178;-81
2023/04/15 05:49:16;;;;;;;11.93;5.87;;;;;;;-141.97;71.64;47572.91;5011755;28;20233;-83
2023/04/15 05:51:42;;;;;;;10.00;6.17;;;;;;;-141.97;71.20;47588.28;5011976;28;20245;-83
2023/04/15 05:54:07;;;;;;;6.63;4.00;;;;;;;-141.97;71.44;47515.22;5013005;28;20175;-83
2023/04/15 05:56:33;;;;;;;8.10;4.93;;;;;;;-141.97;71.25;47642.09;5012444;28;20175;-84
2023/04/15 05:58:58;;;;;;;5.80;3.90;;;;;;;-141.97;69.85;47669.00;5012596;28;20179;-84
2023/04/15 06:01:24;;;;;;;4.97;3.60;;;;;;;-141.97;69.46;47636.31;4997694;28;20231;-84
2023/04/15 06:03:50;;;;;;;6.80;4.00;;;;;;;-141.97;70.06;47711.28;5028356;28;20175;-83
2023/04/15 06:06:15;;;;;;;7.73;4.10;;;;;;;-141.97;69.34;47626.72;5031567;28;20198;-82
2023/04/15 06:08:41;;;;;;;5.37;3.60;;;;;;;-141.97;68.56;47659.38;5028711;28;20182;-84
2023/04/15 06:11:06;;;;;;;12.10;5.83;;;;;;;-141.97;68.66;47653.63;5012764;28;20171;-84
2023/04/15 06:13:32;;;;;;;25.87;12.77;;;;;;;-141.97;68.14;47678.63;5012484;28;20175;-84
2023/04/15 06:15:58;;;;;;;7.37;4.53;;;;;;;-141.97;67.10;47695.91;4996073;28;20181;-83
2023/04/15 06:18:24;;;;;;;9.27;4.40;;;;;;;-141.97;66.42;47749.72;5011732;28;20729;-83
2023/04/15 06:20:49;;;;;;;10.13;6.70;;;;;;;-141.97;67.38;47422.97;5011928;28;20637;-83
2023/04/15 06:23:15;;;;;;;10.13;5.33;;;;;;;-141.97;66.75;47640.16;5011984;28;20640;-84
2023/04/15 06:25:40;;;;;;;8.93;5.50;;;;;;;-141.97;66.68;47588.28;5014682;28;20275;-83
2023/04/15 06:28:10;;;;;;;7.73;5.17;;;;;;;-141.97;67.90;47611.34;5026047;28;20166;-84
2023/04/15 06:30:35;;;;;;;8.63;4.83;;;;;;;-141.97;67.07;47607.50;5034379;28;20174;-84
2023/04/15 06:33:04;;;;;;;9.93;5.60;;;;;;;-141.97;67.24;47686.31;5034158;28;20200;-83
2023/04/15 06:35:29;;;;;;;7.67;4.60;;;;;;;-141.97;67.18;47755.50;5036083;28;20258;-86
2023/04/15 06:37:55;;;;;;;8.20;4.57;;;;;;;-141.97;67.30;47742.03;5036695;28;20243;-84
2023/04/15 06:40:21;;;;;;;9.13;4.87;;;;;;;-141.97;66.44;47409.53;5035818;28;20173;-86
2023/04/15 06:42:46;;;;;;;9.20;4.73;;;;;;;-141.97;65.96;47584.44;5033486;28;20186;-83
2023/04/15 06:45:12;;;;;;;6.87;4.70;;;;;;;-141.97;66.60;47682.47;5048356;28;20542;-82
2023/04/15 06:47:37;;;;;;;10.50;5.20;;;;;;;-141.97;67.90;47488.31;5033458;28;20178;-83
2023/04/15 06:50:04;;;;;;;10.03;5.97;;;;;;;-141.97;68.01;47722.81;5047722;28;20162;-87
2023/04/15 06:52:30;;;;;;;10.00;6.30;;;;;;;-141.97;66.57;47638.25;5056453;28;20193;-81
2023/04/15 06:54:56;;;;;;;9.73;5.27;;;;;;;-141.97;65.70;47676.69;5043150;28;20222;-82
2023/04/15 06:57:21;;;;;;;12.80;6.80;;;;;;;-141.97;65.87;47780.47;5033670;28;20206;-82
2023/04/15 06:59:51;;;;;;;10.67;6.50;;;;;;;-141.97;65.88;47622.88;5032987;28;20170;-84
2023/04/15 07:02:17;;;;;;;12.40;6.70;;;;;;;-141.97;65.18;47724.75;5031768;28;20182;-83
2023/04/15 07:04:42;;;;;;;17.37;8.70;;;;;;;-141.97;64.61;47615.19;5034195;28;21282;-83
2023/04/15 07:07:08;;;;;;;13.70;7.97;;;;;;;-141.97;64.10;47484.47;5032554;28;20668;-84
2023/04/15 07:09:33;;;;;;;14.10;8.37;;;;;;;-141.97;63.35;47590.19;5033734;28;20174;-84
2023/04/15 07:12:02;;;;;;;16.33;8.47;;;;;;;-141.97;62.64;47519.06;5032328;28;20648;-84
2023/04/15 07:14:28;;;;;;;13.77;7.27;;;;;;;-141.97;61.97;47538.28;5032071;28;20255;-85
2023/04/15 07:16:56;;;;;;;14.23;8.00;;;;;;;-141.97;61.82;47730.50;5032339;28;20634;-84
2023/04/15 07:19:22;;;;;;;17.93;8.20;;;;;;;-141.97;62.90;47690.16;5032915;28;20275;-85
2023/04/15 07:21:50;;;;;;;15.07;9.00;;;;;;;-141.97;65.98;47678.63;5033280;28;20582;-85
2023/04/15 07:24:18;;;;;;;16.20;9.17;;;;;;;-141.97;66.28;47661.31;5033930;28;20166;-85
2023/04/15 07:26:44;;;;;;;15.70;8.60;;;;;;;-141.97;64.25;47745.88;5033130;28;20170;-85
2023/04/15 07:29:09;;;;;;;14.00;8.00;;;;;;;-141.97;62.85;47424.91;5029909;28;20213;-84
2023/04/15 07:31:38;;;;;;;13.07;7.97;;;;;;;-141.97;61.45;47499.84;5027770;28;20198;-85
2023/04/15 07:34:06;;;;;;;16.57;8.87;;;;;;;-141.97;61.87;47480.63;5012299;28;20206;-85
2023/04/15 07:36:32;;;;;;;15.40;8.33;;;;;;;-141.97;59.95;47496.00;5012752;28;20196;-85
2023/04/15 07:39:02;;;;;;;13.33;7.90;;;;;;;-141.97;58.74;47768.94;5012122;28;20647;-85
2023/04/15 07:41:28;;;;;;;12.13;7.30;;;;;;;-141.97;59.20;47503.69;5012951;28;20245;-85
2023/04/15 07:43:54;;;;;;;12.10;7.67;;;;;;;-141.97;57.75;47590.19;5012669;28;20549;-86
2023/04/15 07:46:19;;;;;;;12.37;7.00;;;;;;;-141.97;57.24;47676.69;5011849;28;20269;-85
2023/04/15 07:48:45;;;;;;;10.67;6.60;;;;;;;-141.97;56.75;47684.38;5012070;28;20171;-84
2023/04/15 07:51:11;;;;;;;9.73;5.93;;;;;;;-141.97;54.71;47711.28;5011311;28;20198;-85
2023/04/15 07:53:37;;;;;;;7.50;5.23;;;;;;;-141.97;52.42;47634.41;5027710;28;20170;-84
2023/04/15 07:56:02;;;;;;;9.80;6.30;;;;;;;-141.97;51.38;47357.63;5027521;28;20171;-84
2023/04/15 07:58:28;;;;;;;11.40;5.93;;;;;;;-141.97;52.04;47619.03;5028328;28;20174;-84
2023/04/15 08:00:54;;;;;;;12.47;5.57;;;;;;;-141.97;52.43;47534.44;5011948;28;20262;-84
2023/04/15 08:03:21;;;;;;;8.37;5.90;;;;;;;-141.97;53.69;47499.84;5012447;28;20174;-84
2023/04/15 08:05:49;;;;;;;11.43;6.33;;;;;;;-141.97;54.66;47442.19;5012290;28;20233;-84
2023/04/15 08:08:14;;;;;;;10.17;5.80;;;;;;;-141.97;53.46;47580.59;5011340;28;20194;-85
2023/04/15 08:10:40;;;;;;;9.63;5.90;;;;;;;-141.97;51.74;47657.47;5011991;28;20177;-85
2023/04/15 08:13:06;;;;;;;11.17;6.63;;;;;;;-141.97;51.09;47459.50;5010038;28;20682;-85
2023/04/15 08:15:32;;;;;;;10.67;5.73;;;;;;;-141.97;51.53;47542.16;5011335;28;20190;-85
2023/04/15 08:17:59;;;;;;;10.60;6.23;;;;;;;-141.97;52.53;47522.91;5010636;28;20217;-85
2023/04/15 08:20:27;;;;;;;8.63;5.17;;;;;;;-141.97;50.58;47476.78;5011243;28;20242;-85
2023/04/15 08:22:53;;;;;;;7.93;5.00;;;;;;;-141.97;49.77;47446.03;5010056;28;20244;-85
2023/04/15 08:25:21;;;;;;;10.03;5.90;;;;;;;-141.97;50.41;47672.84;5010512;28;20631;-86
2023/04/15 08:27:47;;;;;;;10.17;5.50;;;;;;;-141.97;50.71;47609.41;5010368;28;20639;-86
2023/04/15 08:30:13;;;;;;;9.57;5.20;;;;;;;-141.97;49.28;47590.19;5010725;28;20178;-85
2023/04/15 08:32:41;;;;;;;7.83;4.63;;;;;;;-141.97;49.88;47688.22;5017312;28;20198;-85
2023/04/15 08:35:09;;;;;;;8.27;5.33;;;;;;;-141.97;49.92;47522.91;5011127;28;20666;-85
2023/04/15 08:37:35;;;;;;;7.47;4.37;;;;;;;-141.97;47.49;47705.53;5012122;28;20193;-85
2023/04/15 08:40:00;;;;;;;6.97;4.50;;;;;;;-141.97;46.39;47303.81;5012775;28;20167;-86
2023/04/15 08:42:35;;;;;;;8.03;4.97;;;;;;;-141.97;46.40;47642.09;5012323;28;20179;-85
2023/04/15 08:45:04;;;;;;;7.70;4.67;;;;;;;-141.97;45.15;47726.66;5012490;28;20198;-85
2023/04/15 08:47:30;;;;;;;8.70;4.73;;;;;;;-141.97;44.02;47411.44;5010704;28;20173;-85
2023/04/15 08:50:03;;;;;;;8.87;4.67;;;;;;;-141.97;43.38;47446.03;5010928;28;20703;-86
2023/04/15 08:52:30;;;;;;;8.50;4.87;;;;;;;-141.97;42.97;47736.28;5016262;28;20709;-84
2023/04/15 08:54:57;;;;;;;6.93;3.93;;;;;;;-141.97;42.37;47709.38;5047299;28;20231;-84
2023/04/15 08:57:26;;;;;;;6.20;4.10;;;;;;;-141.97;42.69;47396.06;5031014;28;20165;-85
2023/04/15 08:59:55;;;;;;;5.60;3.63;;;;;;;-141.97;41.52;47461.41;5030276;28;20175;-85
2023/04/15 09:02:23;;;;;;;8.20;3.90;;;;;;;-141.97;40.28;47565.22;5030516;28;20174;-85
2023/04/15 09:04:50;;;;;;;6.63;3.80;;;;;;;-141.97;39.50;47522.91;5031433;28;20634;-85
2023/04/15 09:07:16;;;;;;;8.00;3.87;;;;;;;-141.97;39.57;47609.41;5029817;28;20177;-85
2023/04/15 09:09:41;;;;;;;6.80;4.90;;;;;;;-141.97;39.93;47440.28;5031460;28;20166;-84
2023/04/15 09:12:08;;;;;;;8.17;4.57;;;;;;;-141.97;39.83;47546.00;5042467;28;20255;-84
2023/04/15 09:14:45;;;;;;;7.57;4.70;;;;;;;-141.97;39.98;47446.03;5043169;28;20178;-86
2023/04/15 09:17:10;;;;;;;7.10;4.57;;;;;;;-141.97;39.44;47715.13;5055787;28;20189;-84
2023/04/15 09:19:36;;;;;;;9.17;4.67;;;;;;;-141.97;39.70;47551.75;5041618;28;20304;-84
2023/04/15 09:22:02;;;;;;;9.27;4.80;;;;;;;-141.97;39.99;47586.34;5047351;28;20197;-84
2023/04/15 09:24:38;;;;;;;8.43;5.40;;;;;;;-141.97;40.46;47476.78;5030613;28;20190;-85
2023/04/15 09:27:04;;;;;;;11.17;5.07;;;;;;;-141.97;39.89;47547.91;5035284;28;20166;-84
2023/04/15 09:29:31;;;;;;;8.00;4.87;;;;;;;-141.97;38.91;47463.34;5034772;28;20178;-85
2023/04/15 09:32:11;;;;;;;7.03;4.57;;;;;;;-141.97;39.40;47690.16;5035017;28;20204;-84
2023/04/15 09:34:43;;;;;;;6.17;4.27;;;;;;;-141.97;38.69;47419.13;5034572;28;20166;-84
2023/04/15 09:37:10;;;;;;;7.10;4.47;;;;;;;-141.97;39.70;47384.53;5054471;28;20177;-86
2023/04/15 09:39:52;;;;;;;7.20;4.20;;;;;;;-141.97;38.94;47522.91;5034340;28;20166;-86
2023/04/15 09:42:23;;;;;;;8.80;4.43;;;;;;;-141.97;38.09;47601.72;5033743;28;20658;-85
2023/04/15 09:44:50;;;;;;;8.10;4.10;;;;;;;-141.97;38.09;47676.69;5032832;28;20193;-84
2023/04/15 09:47:30;;;;;;;7.30;3.80;;;;;;;-141.97;37.70;47497.94;5052856;28;20174;-84
2023/04/15 09:49:59;;;;;;;6.27;3.93;;;;;;;-141.97;38.15;47592.13;5033479;28;20166;-85
2023/04/15 09:52:26;;;;;;;7.20;4.70;;;;;;;-141.97;37.83;47461.41;5036358;28;20285;-82
2023/04/15 09:54:56;;;;;;;5.97;3.70;;;;;;;-141.97;36.90;47344.19;5035301;28;20197;-83
2023/04/15 09:57:23;;;;;;;7.13;3.97;;;;;;;-141.97;36.76;47453.72;5033937;28;20174;-84
2023/04/15 09:59:49;;;;;;;5.57;3.33;;;;;;;-141.97;36.49;47311.50;5053344;28;20320;-85
2023/04/15 10:02:17;;;;;;;6.47;3.30;;;;;;;-141.97;35.30;47307.66;5032726;28;20221;-84
2023/04/15 10:04:44;;;;;;;5.20;3.27;;;;;;;-141.97;36.33;47442.19;5033333;28;20174;-86
2023/04/15 10:07:11;;;;;;;5.17;3.30;;;;;;;-141.97;36.54;47544.06;5033894;28;20174;-84
2023/04/15 10:09:38;;;;;;;7.03;3.27;;;;;;;-141.97;36.69;47342.25;5040461;28;20170;-86
2023/04/15 10:12:04;;;;;;;6.43;3.37;;;;;;;-141.97;35.54;47472.94;5043625;28;20209;-84
2023/04/15 10:14:37;;;;;;;6.20;3.00;;;;;;;-141.97;34.96;47332.66;5032604;28;20180;-84
2023/04/15 10:17:04;;;;;;;5.47;3.00;;;;;;;-141.97;34.23;47292.28;5032720;28;20181;-85
2023/04/15 10:19:36;;;;;;;5.10;3.10;;;;;;;-141.97;34.53;47519.06;5033103;28;20218;-86
2023/04/15 10:22:02;;;;;;;4.40;2.60;;;;;;;-141.97;34.91;47357.63;5033661;28;20570;-85
2023/04/15 10:24:29;;;;;;;5.80;3.00;;;;;;;-141.97;35.21;47315.34;5033562;28;20231;-86
2023/04/15 10:26:59;;;;;;;5.60;3.40;;;;;;;-141.97;34.59;47461.41;5034311;28;20162;-85
2023/04/15 10:29:28;;;;;;;5.03;3.30;;;;;;;-141.97;34.25;47444.13;5033238;28;20174;-85
2023/04/15 10:32:01;;;;;;;6.80;3.17;;;;;;;-141.97;34.07;47511.38;5033762;28;20708;-84
2023/04/15 10:34:28;;;;;;;6.17;3.20;;;;;;;-141.97;33.85;47544.06;5033534;28;20162;-84
2023/04/15 10:36:56;;;;;;;10.20;3.40;;;;;;;-141.97;33.93;47653.63;5033955;28;20257;-85
2023/04/15 10:39:33;;;;;;;5.77;3.60;;;;;;;-141.97;33.71;47557.53;5032025;28;20630;-84
2023/04/15 10:42:06;;;;;;;6.50;4.00;;;;;;;-141.97;33.73;47538.28;5031784;28;20170;-84
2023/04/15 10:44:32;;;;;;;8.63;5.50;;;;;;;-141.97;35.60;47530.59;5038742;28;20532;-84
2023/04/15 10:46:57;;;;;;;7.43;4.77;;;;;;;-141.97;35.63;47284.59;5033054;28;20177;-84
2023/04/15 10:49:27;;;;;;;9.43;5.33;;;;;;;-141.97;35.34;47349.94;5032966;28;20249;-85
2023/04/15 10:51:57;;;;;;;10.67;5.77;;;;;;;-141.97;35.87;47642.09;5034186;28;20583;-83
2023/04/15 10:54:26;;;;;;;9.20;6.23;;;;;;;-141.97;35.75;47657.47;5034308;28;20178;-84
2023/04/15 10:57:06;;;;;;;9.00;6.30;;;;;;;-141.97;35.75;47730.50;5033579;28;20198;-84
2023/04/15 10:59:34;;;;;;;8.37;6.40;;;;;;;-141.97;36.32;47315.34;5031410;28;20184;-84
2023/04/15 11:02:08;;;;;;;7.30;5.50;;;;;;;-141.97;35.63;47307.66;5033054;28;20162;-86
2023/04/15 11:04:56;;;;;;;9.73;6.00;;;;;;;-141.97;36.18;47490.25;5031676;28;20369;-84
2023/04/15 11:07:40;;;;;;;9.87;6.07;;;;;;;-141.97;35.79;47511.38;5032472;28;20549;-84
2023/04/15 11:10:24;;;;;;;7.93;5.80;;;;;;;-141.97;36.64;47557.53;5031376;28;20182;-85
2023/04/15 11:12:56;;;;;;;8.00;5.80;;;;;;;-141.97;35.70;47722.81;5033222;28;20225;-84